Time;durP1;ratioP1;P1;durP2;ratioP2;P2;SDS_P1;SDS_P2;PMS_P1;PMS_P2;Temp;Humidity;BMP_temperature;BMP_pressure;BME280_temperature;BME280_humidity;BME280_pressure;Samples;Min_cycle;Max_cycle;Signal;HPM_P1;HPM_P2
2022/11/17 00:02:04;;;;;;;7.28;3.55;;;10.10;88.20;;;;;;5044201;28;20052;-67
2022/11/17 00:04:37;;;;;;;9.10;4.35;;;10.10;88.20;;;;;;5052112;28;20041;-67
2022/11/17 00:07:05;;;;;;;8.52;4.10;;;10.10;88.20;;;;;;5051318;28;20049;-68
2022/11/17 00:09:32;;;;;;;9.50;4.57;;;10.20;88.20;;;;;;5051709;28;20064;-60
2022/11/17 00:14:50;;;;;;;10.50;4.88;;;10.10;88.10;;;;;;5052619;28;20572;-60
2022/11/17 00:17:21;;;;;;;7.35;4.13;;;10.10;88.20;;;;;;5051099;28;20430;-60
2022/11/17 00:22:32;;;;;;;8.52;4.55;;;10.10;88.10;;;;;;5044751;28;20393;-59
2022/11/17 00:25:01;;;;;;;8.23;4.75;;;10.10;88.10;;;;;;5049969;28;20056;-60
2022/11/17 00:27:29;;;;;;;8.15;4.57;;;10.10;88.20;;;;;;5049552;28;20048;-59
2022/11/17 00:29:59;;;;;;;11.73;5.43;;;10.10;88.20;;;;;;5049698;28;20103;-60
2022/11/17 00:35:20;;;;;;;9.73;4.47;;;10.10;88.00;;;;;;5012642;28;20084;-59
2022/11/17 00:40:28;;;;;;;8.80;4.30;;;10.00;88.10;;;;;;5048811;28;20059;-59
2022/11/17 00:42:59;;;;;;;7.05;4.43;;;10.00;88.10;;;;;;5044516;28;20139;-60
2022/11/17 00:45:26;;;;;;;9.65;4.60;;;10.10;88.00;;;;;;5044089;28;20049;-61
2022/11/17 00:47:55;;;;;;;7.80;4.25;;;10.10;88.00;;;;;;5046883;28;20066;-59
2022/11/17 00:50:24;;;;;;;8.93;4.50;;;10.10;87.80;;;;;;5043500;28;20051;-59
2022/11/17 00:52:51;;;;;;;6.75;4.30;;;10.10;88.00;;;;;;5047709;28;20071;-60
2022/11/17 00:55:18;;;;;;;8.80;5.20;;;10.00;88.00;;;;;;5045511;28;20140;-60
2022/11/17 00:57:48;;;;;;;8.25;5.07;;;10.00;87.90;;;;;;5042573;28;20052;-60
2022/11/17 01:00:20;;;;;;;7.13;4.70;;;9.90;88.00;;;;;;5046090;28;20075;-60
2022/11/17 01:02:47;;;;;;;9.30;5.03;;;10.00;88.10;;;;;;5047860;28;20121;-60
2022/11/17 01:05:18;;;;;;;8.63;4.63;;;10.00;88.00;;;;;;5046131;28;20045;-60
2022/11/17 01:07:46;;;;;;;8.30;4.50;;;9.90;88.00;;;;;;5044691;28;20106;-60
2022/11/17 01:10:13;;;;;;;7.90;4.43;;;10.00;87.90;;;;;;5044728;28;20066;-68
2022/11/17 01:12:42;;;;;;;10.05;4.60;;;9.90;88.00;;;;;;5048303;28;20041;-67
2022/11/17 01:15:20;;;;;;;7.85;4.47;;;9.90;88.00;;;;;;5044306;28;20491;-67
2022/11/17 01:17:50;;;;;;;7.63;4.18;;;9.90;88.00;;;;;;5044316;28;20062;-67
2022/11/17 01:20:25;;;;;;;9.60;5.47;;;9.90;88.00;;;;;;5045161;28;20896;-68
2022/11/17 01:22:57;;;;;;;9.43;5.07;;;9.90;88.00;;;;;;5047764;28;20435;-67
2022/11/17 01:25:34;;;;;;;8.95;5.53;;;9.90;88.00;;;;;;5048185;28;20496;-61
2022/11/17 01:28:03;;;;;;;8.38;4.63;;;9.90;88.10;;;;;;5048187;28;20430;-61
2022/11/17 01:30:36;;;;;;;8.18;4.60;;;9.90;88.00;;;;;;5050268;28;20052;-62
2022/11/17 01:33:03;;;;;;;6.90;3.95;;;9.90;88.00;;;;;;5051110;28;20127;-62
2022/11/17 01:35:34;;;;;;;10.50;4.93;;;9.90;88.00;;;;;;5049930;28;20139;-62
2022/11/17 01:38:00;;;;;;;;;;;9.90;87.90;;;;;;5050514;28;20040;-62
2022/11/17 01:40:29;;;;;;;9.20;4.57;;;9.90;87.90;;;;;;5050986;28;19935;-62
2022/11/17 01:42:56;;;;;;;7.85;4.82;;;9.90;87.90;;;;;;5051715;28;20045;-60
2022/11/17 01:45:25;;;;;;;7.63;5.00;;;9.80;88.00;;;;;;5049943;28;20037;-61
2022/11/17 01:47:54;;;;;;;10.50;5.55;;;9.90;88.00;;;;;;5051600;28;20120;-62
2022/11/17 01:50:29;;;;;;;7.88;4.88;;;9.90;88.00;;;;;;5050131;28;20103;-62
2022/11/17 01:52:59;;;;;;;9.30;5.07;;;9.90;88.10;;;;;;5050316;28;20056;-60
2022/11/17 01:55:32;;;;;;;8.15;4.60;;;9.90;88.10;;;;;;5049837;28;20088;-61
2022/11/17 01:58:06;;;;;;;7.60;4.45;;;9.90;88.10;;;;;;5050410;28;20131;-62
2022/11/17 02:00:33;;;;;;;8.15;4.55;;;9.90;88.10;;;;;;5050211;28;20049;-61
2022/11/17 02:03:00;;;;;;;9.05;4.93;;;9.90;88.00;;;;;;5047693;28;20136;-62
2022/11/17 02:05:40;;;;;;;9.02;5.00;;;9.90;88.00;;;;;;5049698;28;20154;-62
2022/11/17 02:08:12;;;;;;;9.30;5.43;;;9.90;88.00;;;;;;5050561;28;20071;-61
2022/11/17 02:10:39;;;;;;;8.27;4.90;;;9.90;87.90;;;;;;5048630;28;20099;-61
2022/11/17 02:13:08;;;;;;;8.40;5.20;;;9.90;87.90;;;;;;5048544;28;20128;-61
2022/11/17 02:15:38;;;;;;;9.35;5.22;;;9.80;88.10;;;;;;5045898;28;20056;-62
2022/11/17 02:18:19;;;;;;;9.63;5.30;;;9.90;88.10;;;;;;5043939;28;20048;-61
2022/11/17 02:21:13;;;;;;;9.20;4.60;;;9.90;88.10;;;;;;5045956;28;20048;-60
2022/11/17 02:24:21;;;;;;;8.68;4.85;;;9.90;88.00;;;;;;5044657;28;20060;-61
2022/11/17 02:27:24;;;;;;;9.73;5.80;;;9.80;88.00;;;;;;5043236;28;20123;-61
2022/11/17 02:30:01;;;;;;;9.80;5.43;;;9.90;88.10;;;;;;5047710;28;20411;-63
2022/11/17 02:32:38;;;;;;;8.77;5.05;;;9.80;88.00;;;;;;5047224;28;20103;-61
2022/11/17 02:35:15;;;;;;;8.85;5.20;;;9.80;88.00;;;;;;5044728;28;20044;-62
2022/11/17 02:37:51;;;;;;;9.55;5.30;;;9.90;88.10;;;;;;5048200;28;20461;-61
2022/11/17 02:40:24;;;;;;;10.18;5.35;;;9.80;88.10;;;;;;5046657;28;20055;-60
2022/11/17 02:45:49;;;;;;;9.98;5.45;;;9.80;88.10;;;;;;5040123;28;20049;-60
2022/11/17 02:48:23;;;;;;;8.88;5.32;;;9.80;88.10;;;;;;5044699;28;20118;-61
2022/11/17 02:50:52;;;;;;;8.60;5.53;;;9.80;88.10;;;;;;5048261;28;20049;-61
2022/11/17 02:53:20;;;;;;;8.35;5.00;;;9.90;88.10;;;;;;5041884;28;20116;-61
2022/11/17 02:55:51;;;;;;;9.85;5.28;;;9.90;88.10;;;;;;5049128;28;20045;-62
2022/11/17 02:58:19;;;;;;;9.13;6.10;;;9.80;88.10;;;;;;5049313;28;20133;-62
2022/11/17 03:01:05;;;;;;;7.90;4.97;;;9.90;88.10;;;;;;5044690;28;20041;-63
2022/11/17 03:03:52;;;;;;;10.15;5.60;;;9.90;88.00;;;;;;5048051;28;20033;-63
2022/11/17 03:06:29;;;;;;;10.90;6.20;;;9.90;88.00;;;;;;5051965;28;20060;-62
2022/11/17 03:09:06;;;;;;;9.68;5.63;;;9.90;88.10;;;;;;5051039;28;20041;-63
2022/11/17 03:11:40;;;;;;;10.98;6.35;;;9.90;88.10;;;;;;5052027;28;20045;-62
2022/11/17 03:14:11;;;;;;;9.98;5.65;;;9.90;88.00;;;;;;5050450;28;20099;-63
2022/11/17 03:16:56;;;;;;;11.90;5.60;;;9.90;88.00;;;;;;5048450;28;20068;-64
2022/11/17 03:19:29;;;;;;;10.75;6.50;;;9.90;88.00;;;;;;5046272;28;20041;-62
2022/11/17 03:22:04;;;;;;;10.50;6.20;;;9.90;88.00;;;;;;5047835;28;20492;-64
2022/11/17 03:24:34;;;;;;;11.02;6.60;;;9.80;88.10;;;;;;5051760;28;20059;-63
2022/11/17 03:27:05;;;;;;;11.40;6.07;;;9.90;88.10;;;;;;5052137;28;20495;-63
2022/11/17 03:29:34;;;;;;;12.25;6.70;;;9.90;88.00;;;;;;5049177;28;20040;-62
2022/11/17 03:32:06;;;;;;;11.18;6.68;;;9.90;88.00;;;;;;5049605;28;20049;-62
2022/11/17 03:34:37;;;;;;;12.27;6.50;;;9.90;88.00;;;;;;5051036;28;20053;-62
2022/11/17 03:37:07;;;;;;;10.60;5.97;;;9.90;88.00;;;;;;5046163;28;20509;-63
2022/11/17 03:39:36;;;;;;;9.32;6.13;;;9.90;88.00;;;;;;5049228;28;20045;-62
2022/11/17 03:42:06;;;;;;;10.02;6.15;;;9.90;88.10;;;;;;5051740;28;20392;-60
2022/11/17 03:44:38;;;;;;;10.88;6.45;;;9.80;88.10;;;;;;5049143;28;20049;-62
2022/11/17 03:47:09;;;;;;;11.18;6.68;;;9.90;88.20;;;;;;5049975;28;20045;-62
2022/11/17 03:49:40;;;;;;;11.27;6.53;;;9.80;88.30;;;;;;5048753;28;20052;-61
2022/11/17 03:52:07;;;;;;;10.60;6.65;;;9.90;88.50;;;;;;5052079;28;20144;-60
2022/11/17 03:54:36;;;;;;;10.57;6.78;;;9.80;88.50;;;;;;5048226;28;20057;-60
2022/11/17 03:57:10;;;;;;;9.40;5.53;;;9.80;88.60;;;;;;5048827;28;20407;-61
2022/11/17 03:59:44;;;;;;;8.93;5.60;;;9.80;88.70;;;;;;5046304;28;20053;-60
2022/11/17 04:02:17;;;;;;;9.02;6.00;;;9.80;88.80;;;;;;5046354;28;20485;-61
2022/11/17 04:07:25;;;;;;;9.15;6.15;;;9.80;89.00;;;;;;5046439;28;20060;-61
2022/11/17 04:09:52;;;;;;;8.02;5.40;;;9.80;88.90;;;;;;5049396;28;20063;-61
2022/11/17 04:17:50;;;;;;;9.02;4.90;;;9.80;89.40;;;;;;5044392;28;20080;-62
2022/11/17 04:20:17;;;;;;;8.38;5.32;;;9.70;89.40;;;;;;5041919;28;20131;-62
2022/11/17 04:22:44;;;;;;;6.93;4.65;;;9.70;89.50;;;;;;5048354;28;20056;-62
2022/11/17 04:28:35;;;;;;;7.85;4.60;;;9.80;89.40;;;;;;5043187;28;20064;-62
2022/11/17 04:30:48;;;;;;;8.40;4.57;;;9.70;89.40;;;;;;5043546;28;20087;-62
2022/11/17 04:33:17;;;;;;;7.15;4.25;;;9.80;89.30;;;;;;5044903;28;20068;-63
2022/11/17 04:35:49;;;;;;;8.20;4.00;;;9.70;89.20;;;;;;5048917;28;20487;-62
2022/11/17 04:38:16;;;;;;;6.07;3.72;;;9.70;89.30;;;;;;5047034;28;20044;-62
2022/11/17 04:41:52;;;;;;;5.95;4.00;;;9.70;89.40;;;;;;5047584;28;20057;-63
2022/11/17 04:43:29;;;;;;;5.93;3.60;;;9.70;89.20;;;;;;5052090;28;20041;-63
2022/11/17 04:45:59;;;;;;;5.82;3.30;;;9.80;89.10;;;;;;5048229;28;20052;-63
2022/11/17 04:48:28;;;;;;;5.50;3.50;;;9.70;89.20;;;;;;5047287;28;20384;-62
2022/11/17 04:50:57;;;;;;;6.65;3.50;;;9.70;89.10;;;;;;5047219;28;20115;-62
2022/11/17 04:53:24;;;;;;;6.45;3.53;;;9.70;89.10;;;;;;5052503;28;20045;-63
2022/11/17 04:55:51;;;;;;;4.95;2.90;;;9.70;89.20;;;;;;5047348;28;20052;-63
2022/11/17 04:58:18;;;;;;;4.40;2.90;;;9.70;89.20;;;;;;5046223;28;20051;-62
2022/11/17 05:00:45;;;;;;;6.72;3.38;;;9.70;89.30;;;;;;5046668;28;20057;-63
2022/11/17 05:03:12;;;;;;;4.70;3.10;;;9.70;89.40;;;;;;5046791;28;20041;-62
2022/11/17 05:05:40;;;;;;;4.25;2.72;;;9.70;89.40;;;;;;5047721;28;20068;-63
2022/11/17 05:08:07;;;;;;;5.00;3.03;;;9.70;89.50;;;;;;5049972;28;20052;-63
2022/11/17 05:13:25;;;;;;;5.05;2.95;;;9.70;89.40;;;;;;5047915;28;20503;-62
2022/11/17 05:18:41;;;;;;;5.10;3.10;;;9.70;89.40;;;;;;5023464;28;20102;-62
2022/11/17 05:21:11;;;;;;;5.63;3.42;;;9.70;89.20;;;;;;5048862;28;20051;-61
2022/11/17 05:23:55;;;;;;;6.03;4.00;;;9.70;89.20;;;;;;5047246;28;20053;-62
2022/11/17 05:26:24;;;;;;;4.68;3.28;;;9.70;89.40;;;;;;5050594;28;20052;-62
2022/11/17 05:28:51;;;;;;;5.35;3.22;;;9.70;89.60;;;;;;5048548;28;20045;-62
2022/11/17 05:31:18;;;;;;;5.53;3.45;;;9.70;89.60;;;;;;5047836;28;20044;-62
2022/11/17 05:33:45;;;;;;;6.10;3.58;;;9.70;89.50;;;;;;5046119;28;20439;-61
2022/11/17 05:36:13;;;;;;;6.05;3.83;;;9.70;89.60;;;;;;5043608;28;20044;-62
2022/11/17 05:38:40;;;;;;;6.00;3.65;;;9.70;89.60;;;;;;5047686;28;20049;-62
2022/11/17 05:41:07;;;;;;;7.43;4.03;;;9.70;89.60;;;;;;5044159;28;20201;-63
2022/11/17 05:43:35;;;;;;;8.02;4.30;;;9.70;89.40;;;;;;5044618;28;20045;-63
2022/11/17 05:46:01;;;;;;;5.38;3.60;;;9.70;89.50;;;;;;5041690;28;20059;-63
2022/11/17 05:48:29;;;;;;;7.40;3.90;;;9.70;89.60;;;;;;5047328;28;20056;-63
2022/11/17 05:50:56;;;;;;;6.45;3.70;;;9.70;89.60;;;;;;5046795;28;20084;-62
2022/11/17 05:53:29;;;;;;;8.05;4.10;;;9.70;89.70;;;;;;5043896;28;20056;-62
2022/11/17 05:56:10;;;;;;;7.47;4.20;;;9.70;89.80;;;;;;5047144;28;20044;-62
2022/11/17 05:58:42;;;;;;;5.65;3.40;;;9.70;89.70;;;;;;5046197;28;20047;-62
2022/11/17 06:01:11;;;;;;;8.10;4.50;;;9.70;89.80;;;;;;5043244;28;20079;-62
2022/11/17 06:03:41;;;;;;;6.07;3.90;;;9.70;89.60;;;;;;5046464;28;20143;-62
2022/11/17 06:06:08;;;;;;;;;;;9.70;89.70;;;;;;5048767;28;20530;-62
2022/11/17 06:08:37;;;;;;;5.38;3.40;;;9.60;89.80;;;;;;5043638;28;19925;-62
2022/11/17 06:11:04;;;;;;;5.45;4.00;;;9.70;89.80;;;;;;5048296;28;20563;-62
2022/11/17 06:13:31;;;;;;;6.07;3.88;;;9.70;89.60;;;;;;5046732;28;20122;-62
2022/11/17 06:16:02;;;;;;;5.97;3.80;;;9.70;89.60;;;;;;5045993;28;20060;-62
2022/11/17 06:18:32;;;;;;;5.40;3.25;;;9.70;89.70;;;;;;5041490;28;20049;-61
2022/11/17 06:20:59;;;;;;;6.80;3.97;;;9.70;89.70;;;;;;5048494;28;20487;-62
2022/11/17 06:23:28;;;;;;;7.47;3.92;;;9.70;89.60;;;;;;5049836;28;20844;-62
2022/11/17 06:25:58;;;;;;;5.82;3.65;;;9.70;89.80;;;;;;5048578;28;20060;-62
2022/11/17 06:28:32;;;;;;;6.32;3.40;;;9.70;89.70;;;;;;5045164;28;20111;-62
2022/11/17 06:31:00;;;;;;;5.93;4.13;;;9.70;89.70;;;;;;5047657;28;20053;-61
2022/11/17 06:33:30;;;;;;;5.97;4.13;;;9.70;89.70;;;;;;5051515;28;20384;-62
2022/11/17 06:36:00;;;;;;;6.15;3.72;;;9.70;89.80;;;;;;5050912;28;20055;-62
2022/11/17 06:38:28;;;;;;;6.15;3.40;;;9.70;89.70;;;;;;5048847;28;20510;-62
2022/11/17 06:40:56;;;;;;;5.70;3.90;;;9.70;89.70;;;;;;5046086;28;20053;-63
2022/11/17 06:43:23;;;;;;;5.63;3.55;;;9.70;89.80;;;;;;5047627;28;20053;-62
2022/11/17 06:45:50;;;;;;;7.47;3.85;;;9.70;89.60;;;;;;5047902;28;20133;-61
2022/11/17 06:48:24;;;;;;;7.97;5.10;;;9.70;89.60;;;;;;5046089;28;20045;-63
2022/11/17 06:50:51;;;;;;;8.55;5.50;;;9.70;89.70;;;;;;5045692;28;20479;-62
2022/11/17 06:53:18;;;;;;;8.75;5.85;;;9.70;89.70;;;;;;5047370;28;20072;-62
2022/11/17 06:55:48;;;;;;;9.13;5.47;;;9.70;89.90;;;;;;5049839;28;20061;-62
2022/11/17 06:58:17;;;;;;;8.27;4.97;;;9.70;90.00;;;;;;5047332;28;20119;-63
2022/11/17 07:00:45;;;;;;;8.18;4.68;;;9.70;89.70;;;;;;5049197;28;20040;-62
2022/11/17 07:03:12;;;;;;;6.45;4.43;;;9.70;89.90;;;;;;5043488;28;20140;-62
2022/11/17 07:05:41;;;;;;;7.28;4.43;;;9.70;90.10;;;;;;5044634;28;20152;-63
2022/11/17 07:08:09;;;;;;;7.40;4.28;;;9.70;90.10;;;;;;5050607;28;20057;-63
2022/11/17 07:10:37;;;;;;;6.70;4.30;;;9.70;90.20;;;;;;5047326;28;20073;-62
2022/11/17 07:13:04;;;;;;;6.90;4.00;;;9.70;89.90;;;;;;5044907;28;20149;-61
2022/11/17 07:15:32;;;;;;;8.55;4.05;;;9.70;90.10;;;;;;5046516;28;20500;-62
2022/11/17 07:17:59;;;;;;;8.95;3.65;;;9.70;90.10;;;;;;5044497;28;20520;-62
2022/11/17 07:20:26;;;;;;;7.75;3.65;;;9.70;90.10;;;;;;5045629;28;20080;-62
2022/11/17 07:22:58;;;;;;;5.25;3.30;;;9.70;90.10;;;;;;5041040;28;20041;-63
2022/11/17 07:25:25;;;;;;;6.53;4.05;;;9.70;90.20;;;;;;5044756;28;20063;-63
2022/11/17 07:27:59;;;;;;;6.93;3.78;;;9.70;90.20;;;;;;5043808;28;20051;-63
2022/11/17 07:30:27;;;;;;;5.68;3.38;;;9.70;90.30;;;;;;5044254;28;20045;-67
2022/11/17 07:32:58;;;;;;;6.70;3.78;;;9.70;90.30;;;;;;5041732;28;20235;-67
2022/11/17 07:35:25;;;;;;;6.32;3.90;;;9.70;90.50;;;;;;5041591;28;20496;-67
2022/11/17 07:37:52;;;;;;;6.10;3.70;;;9.80;90.50;;;;;;5047043;28;20072;-66
2022/11/17 07:40:19;;;;;;;6.53;3.53;;;9.80;90.40;;;;;;5043720;28;20045;-61
2022/11/17 07:42:48;;;;;;;5.10;3.42;;;9.80;90.30;;;;;;5045772;28;20163;-61
2022/11/17 07:45:17;;;;;;;6.68;3.63;;;9.80;90.30;;;;;;5044838;28;20131;-64
2022/11/17 07:47:44;;;;;;;6.03;3.80;;;9.80;90.20;;;;;;5042818;28;20111;-64
2022/11/17 07:50:12;;;;;;;7.43;3.70;;;9.90;90.10;;;;;;5049014;28;20053;-59
2022/11/17 07:52:39;;;;;;;7.65;4.82;;;9.90;90.20;;;;;;5029876;28;20076;-59
2022/11/17 07:55:07;;;;;;;6.65;4.10;;;9.90;90.20;;;;;;5049516;28;20049;-59
2022/11/17 07:57:37;;;;;;;6.72;4.05;;;9.90;90.30;;;;;;5044993;28;20055;-59
2022/11/17 08:00:04;;;;;;;6.70;3.90;;;9.90;90.40;;;;;;5051294;28;20036;-59
2022/11/17 08:02:39;;;;;;;5.75;3.63;;;9.90;90.30;;;;;;5046395;28;20529;-60
2022/11/17 08:05:09;;;;;;;6.03;3.88;;;9.90;90.30;;;;;;5050649;28;20649;-58
2022/11/17 08:07:37;;;;;;;6.38;3.90;;;9.90;90.40;;;;;;5052255;28;20918;-59
2022/11/17 08:10:05;;;;;;;8.10;4.25;;;9.90;90.30;;;;;;5046935;28;20037;-58
2022/11/17 08:12:32;;;;;;;9.18;4.38;;;9.90;90.40;;;;;;5052763;28;20071;-58
2022/11/17 08:14:58;;;;;;;5.82;3.60;;;9.90;90.40;;;;;;5049060;28;20046;-64
2022/11/17 08:17:26;;;;;;;6.30;3.45;;;10.00;90.30;;;;;;5046672;28;20047;-63
2022/11/17 08:19:55;;;;;;;5.53;3.50;;;9.90;90.30;;;;;;5046394;28;20072;-68
2022/11/17 08:22:22;;;;;;;6.05;3.58;;;10.00;90.30;;;;;;5044961;28;20106;-66
2022/11/17 08:24:52;;;;;;;5.88;3.33;;;10.00;90.30;;;;;;5045214;28;20045;-66
2022/11/17 08:27:19;;;;;;;5.88;3.40;;;10.00;90.30;;;;;;5051633;28;20045;-67
2022/11/17 08:29:48;;;;;;;6.45;3.63;;;10.00;90.30;;;;;;5048603;28;20045;-64
2022/11/17 08:32:15;;;;;;;5.47;3.15;;;10.00;90.10;;;;;;5048975;28;20036;-63
2022/11/17 08:34:42;;;;;;;5.97;3.30;;;10.00;90.30;;;;;;5048394;28;20049;-68
2022/11/17 08:37:09;;;;;;;7.22;3.83;;;10.00;90.20;;;;;;5050975;28;20063;-69
2022/11/17 08:39:35;;;;;;;6.43;3.95;;;10.10;90.20;;;;;;5047763;28;20080;-68
2022/11/17 08:42:04;;;;;;;6.00;3.60;;;10.10;90.10;;;;;;5044795;28;20045;-68
2022/11/17 08:44:31;;;;;;;5.88;3.20;;;10.00;90.20;;;;;;5050721;28;20143;-69
2022/11/17 08:46:58;;;;;;;7.20;3.35;;;10.10;90.20;;;;;;5046040;28;20187;-68
2022/11/17 08:49:25;;;;;;;7.15;3.58;;;10.10;90.20;;;;;;5045543;28;20049;-69
2022/11/17 08:51:52;;;;;;;7.47;3.25;;;10.20;90.10;;;;;;5046248;28;20052;-69
2022/11/17 08:54:19;;;;;;;5.30;3.10;;;10.20;90.10;;;;;;5047533;28;20068;-69
2022/11/17 08:56:45;;;;;;;4.93;3.17;;;10.30;90.20;;;;;;5048088;28;20060;-69
2022/11/17 08:59:14;;;;;;;7.22;3.63;;;10.30;90.10;;;;;;5047045;28;20132;-69
2022/11/17 09:01:41;;;;;;;7.40;3.67;;;10.30;90.10;;;;;;5046787;28;20067;-66
2022/11/17 09:04:08;;;;;;;5.75;3.35;;;10.30;90.10;;;;;;5042747;28;20052;-66
2022/11/17 09:06:36;;;;;;;7.40;3.78;;;10.30;90.10;;;;;;5046831;28;20139;-67
2022/11/17 09:09:03;;;;;;;6.80;3.92;;;10.30;90.10;;;;;;5047918;28;20150;-67
2022/11/17 09:11:31;;;;;;;5.45;3.10;;;10.30;89.90;;;;;;5048138;28;20064;-67
2022/11/17 09:13:58;;;;;;;7.00;3.83;;;10.30;90.10;;;;;;5046959;28;20353;-67
2022/11/17 09:16:27;;;;;;;6.45;3.10;;;10.20;90.30;;;;;;5046419;28;20130;-67
2022/11/17 09:18:56;;;;;;;5.55;3.17;;;10.30;90.20;;;;;;5047137;28;20037;-67
2022/11/17 09:21:23;;;;;;;7.80;3.40;;;10.30;90.20;;;;;;5048270;28;20049;-59
2022/11/17 09:23:50;;;;;;;7.65;3.13;;;10.30;90.20;;;;;;5045120;28;20076;-59
2022/11/17 09:26:17;;;;;;;6.38;3.45;;;10.30;90.30;;;;;;5045666;28;20072;-59
2022/11/17 09:28:44;;;;;;;7.78;3.33;;;10.30;90.30;;;;;;5048358;28;20129;-60
2022/11/17 09:31:13;;;;;;;6.25;3.00;;;10.40;90.40;;;;;;5048862;28;20087;-59
2022/11/17 09:33:42;;;;;;;6.18;3.50;;;10.40;90.40;;;;;;5049230;28;20052;-60
2022/11/17 09:36:10;;;;;;;6.60;3.33;;;10.40;90.40;;;;;;5051892;28;20045;-61
2022/11/17 09:38:37;;;;;;;5.65;2.85;;;10.60;90.40;;;;;;5048862;28;20179;-60
2022/11/17 09:41:26;;;;;;;6.88;3.15;;;10.60;90.30;;;;;;5049384;28;20091;-60
2022/11/17 09:44:11;;;;;;;7.22;3.08;;;10.70;90.30;;;;;;5044651;28;20072;-61
2022/11/17 09:46:51;;;;;;;7.30;2.92;;;10.90;90.40;;;;;;5049416;28;20163;-61
2022/11/17 09:49:32;;;;;;;5.53;2.25;;;10.90;90.40;;;;;;5048107;28;20170;-61
2022/11/17 09:52:09;;;;;;;6.20;2.50;;;11.00;90.40;;;;;;5048800;28;20051;-68
2022/11/17 09:54:43;;;;;;;5.53;2.10;;;11.20;90.40;;;;;;5048333;28;20052;-68
2022/11/17 09:57:20;;;;;;;3.53;1.42;;;11.20;90.10;;;;;;5048260;28;20059;-68
2022/11/17 09:59:56;;;;;;;5.63;1.50;;;11.30;89.60;;;;;;5049464;28;20041;-67
2022/11/17 10:02:23;;;;;;;4.45;1.40;;;11.30;89.50;;;;;;5045470;28;20065;-63
2022/11/17 10:04:52;;;;;;;5.15;1.27;;;11.40;89.40;;;;;;5029244;28;20343;-63
2022/11/17 10:07:19;;;;;;;3.10;0.93;;;11.50;89.00;;;;;;5049938;28;20045;-59
2022/11/17 10:09:48;;;;;;;3.78;1.23;;;11.60;89.10;;;;;;5044628;28;20499;-60
2022/11/17 10:12:19;;;;;;;2.50;0.70;;;11.50;89.00;;;;;;5050192;28;20128;-60
2022/11/17 10:14:47;;;;;;;4.38;1.00;;;11.60;88.90;;;;;;5048244;28;20171;-60
2022/11/17 10:17:15;;;;;;;2.95;0.70;;;11.60;88.70;;;;;;5043740;28;20139;-60
2022/11/17 10:19:44;;;;;;;4.75;0.75;;;11.70;88.50;;;;;;5047176;28;20045;-61
2022/11/17 10:22:24;;;;;;;5.47;0.85;;;11.70;88.30;;;;;;5046830;28;20094;-60
2022/11/17 10:24:54;;;;;;;4.10;0.98;;;11.70;88.20;;;;;;5047581;28;20052;-60
2022/11/17 10:27:23;;;;;;;3.63;1.08;;;11.70;88.30;;;;;;5045172;28;20064;-67
2022/11/17 10:30:01;;;;;;;4.43;1.10;;;11.70;88.40;;;;;;5048764;28;20045;-68
2022/11/17 10:32:30;;;;;;;3.80;0.90;;;11.70;88.30;;;;;;5047707;28;20144;-69
2022/11/17 10:35:16;;;;;;;3.97;0.80;;;11.90;87.90;;;;;;5045685;28;20036;-67
2022/11/17 10:37:54;;;;;;;7.25;1.52;;;11.90;87.90;;;;;;5046688;28;20111;-63
2022/11/17 10:40:23;;;;;;;2.92;0.75;;;12.00;87.50;;;;;;5045267;28;20115;-63
2022/11/17 10:42:58;;;;;;;5.60;1.00;;;12.10;87.50;;;;;;5047477;28;20131;-62
2022/11/17 10:45:25;;;;;;;5.03;0.82;;;12.00;87.60;;;;;;5039928;28;20148;-67
2022/11/17 10:47:52;;;;;;;3.70;0.70;;;12.10;87.60;;;;;;5045157;28;20056;-66
2022/11/17 10:50:22;;;;;;;6.50;1.50;;;12.20;87.50;;;;;;5042843;28;20863;-67
2022/11/17 10:52:52;;;;;;;3.08;0.82;;;12.20;87.40;;;;;;5044707;28;20057;-67
2022/11/17 10:55:28;;;;;;;4.13;0.73;;;12.30;87.20;;;;;;5047765;28;20049;-61
2022/11/17 10:58:00;;;;;;;6.57;0.85;;;12.30;86.80;;;;;;5043635;28;20140;-62
2022/11/17 11:00:32;;;;;;;6.55;1.00;;;12.30;86.90;;;;;;5046085;28;20037;-66
2022/11/17 11:03:21;;;;;;;3.47;0.70;;;12.30;87.00;;;;;;5044075;28;20128;-67
2022/11/17 11:06:05;;;;;;;4.63;0.98;;;12.30;86.60;;;;;;5044356;28;20049;-67
2022/11/17 11:08:42;;;;;;;3.60;0.90;;;12.30;86.50;;;;;;5043436;28;20044;-67
2022/11/17 11:11:17;;;;;;;5.03;0.80;;;12.20;86.60;;;;;;5046606;28;20122;-62
2022/11/17 11:13:49;;;;;;;3.67;1.02;;;12.20;86.70;;;;;;5045825;28;20495;-63
2022/11/17 11:16:16;;;;;;;4.63;0.90;;;12.20;86.60;;;;;;5046107;28;20045;-62
2022/11/17 11:18:43;;;;;;;3.25;0.82;;;12.30;86.20;;;;;;5048832;28;20041;-62
2022/11/17 11:21:17;;;;;;;4.18;0.73;;;12.50;86.20;;;;;;5046952;28;20488;-63
2022/11/17 11:23:52;;;;;;;3.88;1.17;;;12.60;86.00;;;;;;5047604;28;20647;-62
2022/11/17 11:26:35;;;;;;;6.38;0.90;;;12.60;85.80;;;;;;5052286;28;20509;-62
2022/11/17 11:29:14;;;;;;;6.35;1.27;;;12.60;85.80;;;;;;5045736;28;20052;-62
2022/11/17 11:31:50;;;;;;;4.90;1.20;;;12.50;85.90;;;;;;5050343;28;20503;-62
2022/11/17 11:34:48;;;;;;;3.92;1.10;;;12.50;85.70;;;;;;5048153;28;20063;-63
2022/11/17 11:37:16;;;;;;;3.60;0.93;;;12.60;85.70;;;;;;5050924;28;20037;-62
2022/11/17 11:39:54;;;;;;;4.68;0.73;;;12.60;85.60;;;;;;5047032;28;20045;-63
2022/11/17 11:42:39;;;;;;;3.70;0.75;;;12.60;85.50;;;;;;5053265;28;20052;-63
2022/11/17 11:45:19;;;;;;;5.97;0.85;;;12.70;85.40;;;;;;5049704;28;20480;-62
2022/11/17 11:48:05;;;;;;;3.83;1.15;;;12.70;85.20;;;;;;5051134;28;20055;-63
2022/11/17 11:50:35;;;;;;;6.13;0.90;;;12.80;85.20;;;;;;5051191;28;20045;-62
2022/11/17 11:53:09;;;;;;;2.78;0.65;;;12.80;85.00;;;;;;5048910;28;20087;-62
2022/11/17 11:55:41;;;;;;;5.03;0.70;;;12.90;84.50;;;;;;5052370;28;20069;-63
2022/11/17 11:58:15;;;;;;;3.60;0.77;;;12.90;84.70;;;;;;5051590;28;20191;-63
2022/11/17 12:00:43;;;;;;;4.63;1.00;;;12.90;84.50;;;;;;5048314;28;20049;-61
2022/11/17 12:03:20;;;;;;;4.22;1.10;;;12.90;84.60;;;;;;5046722;28;20096;-63
2022/11/17 12:06:38;;;;;;;2.80;0.85;;;12.80;84.50;;;;;;5050940;28;20057;-63
2022/11/17 12:08:51;;;;;;;5.13;1.05;;;12.70;84.20;;;;;;5048906;28;20606;-63
2022/11/17 12:14:06;;;;;;;3.92;0.80;;;12.60;83.80;;;;;;5049306;28;20128;-62
2022/11/17 12:16:35;;;;;;;5.15;1.33;;;12.60;84.00;;;;;;5048266;28;20060;-62
2022/11/17 12:19:02;;;;;;;5.47;1.43;;;12.50;84.00;;;;;;5046848;28;20045;-63
2022/11/17 12:21:30;;;;;;;7.50;1.50;;;12.50;84.20;;;;;;5050003;28;20049;-63
2022/11/17 12:24:16;;;;;;;4.50;1.70;;;12.50;83.90;;;;;;5049816;28;20168;-63
2022/11/17 12:26:45;;;;;;;5.90;1.48;;;12.40;84.20;;;;;;5046477;28;20048;-61
2022/11/17 12:29:30;;;;;;;2.63;0.63;;;12.40;84.20;;;;;;5049318;28;20049;-63
2022/11/17 12:31:59;;;;;;;3.00;0.70;;;12.40;84.70;;;;;;5043631;28;20049;-62
2022/11/17 12:34:32;;;;;;;5.07;1.33;;;12.40;84.90;;;;;;5047532;28;20057;-63
2022/11/17 12:37:28;;;;;;;5.50;0.82;;;12.40;84.90;;;;;;5047355;28;20045;-63
2022/11/17 12:40:00;;;;;;;3.55;0.70;;;12.40;84.90;;;;;;5047360;28;20057;-63
2022/11/17 12:42:30;;;;;;;3.53;0.70;;;12.40;85.10;;;;;;5048715;28;20041;-63
2022/11/17 12:44:59;;;;;;;3.03;0.98;;;12.30;85.10;;;;;;5045787;28;20056;-63
2022/11/17 12:47:28;;;;;;;3.08;0.95;;;12.30;85.40;;;;;;5047211;28;20053;-62
2022/11/17 12:50:42;;;;;;;3.58;0.98;;;12.30;85.30;;;;;;5049006;28;20047;-62
2022/11/17 12:53:44;;;;;;;4.75;1.15;;;12.30;85.00;;;;;;5048029;28;20052;-63
2022/11/17 12:56:28;;;;;;;4.53;1.10;;;12.30;85.50;;;;;;5043707;28;20052;-62
2022/11/17 12:59:18;;;;;;;3.47;1.00;;;12.20;85.30;;;;;;5048399;28;20069;-62
2022/11/17 13:01:55;;;;;;;2.92;0.70;;;12.20;84.90;;;;;;5042719;28;20056;-61
2022/11/17 13:04:29;;;;;;;1.73;0.63;;;12.20;84.90;;;;;;5051707;28;20040;-63
2022/11/17 13:07:01;;;;;;;2.60;0.60;;;12.30;84.40;;;;;;5049089;28;20095;-62
2022/11/17 13:09:32;;;;;;;2.08;0.70;;;12.30;83.70;;;;;;5046210;28;20041;-61
2022/11/17 13:12:01;;;;;;;4.20;1.10;;;12.30;83.30;;;;;;5050079;28;20048;-62
2022/11/17 13:14:32;;;;;;;3.80;0.70;;;12.40;83.00;;;;;;5051015;28;20411;-62
2022/11/17 13:17:00;;;;;;;2.15;0.60;;;12.40;82.70;;;;;;5050519;28;20052;-62
2022/11/17 13:19:36;;;;;;;2.35;0.60;;;12.40;83.00;;;;;;5042050;28;20079;-62
2022/11/17 13:22:06;;;;;;;3.63;0.93;;;12.40;83.10;;;;;;5050746;28;20094;-62
2022/11/17 13:24:35;;;;;;;3.83;1.30;;;12.50;82.70;;;;;;5048532;28;20049;-62
2022/11/17 13:27:06;;;;;;;3.58;1.20;;;12.50;82.90;;;;;;5051487;28;20475;-63
2022/11/17 13:29:34;;;;;;;3.33;0.88;;;12.50;83.20;;;;;;5050936;28;20076;-64
2022/11/17 13:32:17;;;;;;;3.80;1.00;;;12.50;82.60;;;;;;5045959;28;20091;-64
2022/11/17 13:34:52;;;;;;;2.63;0.77;;;12.60;82.80;;;;;;5041532;28;20044;-64
2022/11/17 13:37:24;;;;;;;3.35;0.65;;;12.50;82.90;;;;;;5049135;28;20041;-64
2022/11/17 13:40:00;;;;;;;5.18;0.70;;;12.40;83.10;;;;;;5050516;28;20128;-64
2022/11/17 13:42:32;;;;;;;2.72;0.82;;;12.40;82.60;;;;;;5050921;28;20055;-64
2022/11/17 13:45:05;;;;;;;6.88;1.40;;;12.40;83.50;;;;;;5049465;28;20094;-64
2022/11/17 13:47:45;;;;;;;4.82;1.70;;;12.40;82.80;;;;;;5050617;28;20052;-63
2022/11/17 13:50:22;;;;;;;;;;;12.50;83.00;;;;;;5046795;28;20064;-64